sensor_id;sensor_type;location;lat;lon;timestamp;P1;durP1;ratioP1;P2;durP2;ratioP2
38222;SDS011;24024;51.186;6.458;2023-08-12T00:00:09;9.77;;;5.68;;
38222;SDS011;24024;51.186;6.458;2023-08-12T00:02:44;9.90;;;5.75;;
38222;SDS011;24024;51.186;6.458;2023-08-12T00:05:12;9.40;;;5.30;;
38222;SDS011;24024;51.186;6.458;2023-08-12T00:07:40;9.07;;;5.43;;
38222;SDS011;24024;51.186;6.458;2023-08-12T00:10:10;9.27;;;5.10;;
38222;SDS011;24024;51.186;6.458;2023-08-12T00:12:38;8.98;;;6.10;;
38222;SDS011;24024;51.186;6.458;2023-08-12T00:15:08;11.07;;;5.93;;
38222;SDS011;24024;51.186;6.458;2023-08-12T00:17:39;7.18;;;4.97;;
38222;SDS011;24024;51.186;6.458;2023-08-12T00:20:08;9.20;;;5.82;;
38222;SDS011;24024;51.186;6.458;2023-08-12T00:22:37;8.50;;;6.20;;
38222;SDS011;24024;51.186;6.458;2023-08-12T00:25:05;11.68;;;5.72;;
38222;SDS011;24024;51.186;6.458;2023-08-12T00:27:33;10.82;;;6.10;;
38222;SDS011;24024;51.186;6.458;2023-08-12T00:30:00;9.38;;;5.57;;
38222;SDS011;24024;51.186;6.458;2023-08-12T00:32:27;9.70;;;5.80;;
38222;SDS011;24024;51.186;6.458;2023-08-12T00:34:54;11.50;;;6.57;;
38222;SDS011;24024;51.186;6.458;2023-08-12T00:37:23;8.38;;;5.93;;
38222;SDS011;24024;51.186;6.458;2023-08-12T00:39:52;10.98;;;6.55;;
38222;SDS011;24024;51.186;6.458;2023-08-12T00:42:19;11.30;;;6.40;;
38222;SDS011;24024;51.186;6.458;2023-08-12T00:44:51;11.70;;;6.25;;
38222;SDS011;24024;51.186;6.458;2023-08-12T00:47:20;8.93;;;5.38;;
38222;SDS011;24024;51.186;6.458;2023-08-12T00:49:48;9.20;;;5.90;;
38222;SDS011;24024;51.186;6.458;2023-08-12T00:52:15;13.05;;;7.55;;
38222;SDS011;24024;51.186;6.458;2023-08-12T00:54:44;10.38;;;7.05;;
38222;SDS011;24024;51.186;6.458;2023-08-12T00:57:11;11.90;;;6.97;;
38222;SDS011;24024;51.186;6.458;2023-08-12T00:59:38;9.15;;;5.78;;
38222;SDS011;24024;51.186;6.458;2023-08-12T01:02:07;12.15;;;7.03;;
38222;SDS011;24024;51.186;6.458;2023-08-12T01:04:34;10.93;;;7.22;;
38222;SDS011;24024;51.186;6.458;2023-08-12T01:07:04;10.98;;;6.63;;
38222;SDS011;24024;51.186;6.458;2023-08-12T01:09:31;13.02;;;8.45;;
38222;SDS011;24024;51.186;6.458;2023-08-12T01:12:03;10.82;;;7.80;;
38222;SDS011;24024;51.186;6.458;2023-08-12T01:17:42;10.32;;;8.00;;
38222;SDS011;24024;51.186;6.458;2023-08-12T01:20:20;12.13;;;7.97;;
38222;SDS011;24024;51.186;6.458;2023-08-12T01:22:57;11.38;;;7.90;;
38222;SDS011;24024;51.186;6.458;2023-08-12T01:25:37;11.60;;;7.85;;
38222;SDS011;24024;51.186;6.458;2023-08-12T01:28:04;11.63;;;7.43;;
38222;SDS011;24024;51.186;6.458;2023-08-12T01:30:32;9.95;;;7.55;;
38222;SDS011;24024;51.186;6.458;2023-08-12T01:33:09;14.05;;;9.18;;
38222;SDS011;24024;51.186;6.458;2023-08-12T01:35:47;11.32;;;8.02;;
38222;SDS011;24024;51.186;6.458;2023-08-12T01:38:24;12.63;;;8.05;;
38222;SDS011;24024;51.186;6.458;2023-08-12T01:40:54;12.27;;;8.35;;
38222;SDS011;24024;51.186;6.458;2023-08-12T01:43:24;13.15;;;8.80;;
38222;SDS011;24024;51.186;6.458;2023-08-12T01:45:54;12.73;;;9.48;;
38222;SDS011;24024;51.186;6.458;2023-08-12T01:48:23;15.23;;;9.93;;
38222;SDS011;24024;51.186;6.458;2023-08-12T01:50:50;14.73;;;9.70;;
38222;SDS011;24024;51.186;6.458;2023-08-12T01:53:16;11.98;;;10.13;;
38222;SDS011;24024;51.186;6.458;2023-08-12T01:55:44;14.07;;;9.82;;
38222;SDS011;24024;51.186;6.458;2023-08-12T01:58:11;13.88;;;10.32;;
38222;SDS011;24024;51.186;6.458;2023-08-12T02:00:38;15.77;;;10.63;;
38222;SDS011;24024;51.186;6.458;2023-08-12T02:03:05;15.20;;;10.23;;
38222;SDS011;24024;51.186;6.458;2023-08-12T02:05:33;14.40;;;10.95;;
38222;SDS011;24024;51.186;6.458;2023-08-12T02:08:02;17.95;;;12.25;;
38222;SDS011;24024;51.186;6.458;2023-08-12T02:10:30;14.85;;;10.50;;
38222;SDS011;24024;51.186;6.458;2023-08-12T02:12:56;14.15;;;10.23;;
38222;SDS011;24024;51.186;6.458;2023-08-12T02:15:23;17.00;;;12.30;;
38222;SDS011;24024;51.186;6.458;2023-08-12T02:17:50;15.95;;;10.88;;
38222;SDS011;24024;51.186;6.458;2023-08-12T02:20:17;12.82;;;9.38;;
38222;SDS011;24024;51.186;6.458;2023-08-12T02:22:44;14.07;;;11.52;;
38222;SDS011;24024;51.186;6.458;2023-08-12T02:25:11;15.88;;;11.48;;
38222;SDS011;24024;51.186;6.458;2023-08-12T02:27:40;13.65;;;9.82;;
38222;SDS011;24024;51.186;6.458;2023-08-12T02:30:07;16.90;;;11.55;;
38222;SDS011;24024;51.186;6.458;2023-08-12T02:32:34;15.77;;;11.75;;
38222;SDS011;24024;51.186;6.458;2023-08-12T02:35:01;13.55;;;10.05;;
38222;SDS011;24024;51.186;6.458;2023-08-12T02:37:30;16.90;;;11.88;;
38222;SDS011;24024;51.186;6.458;2023-08-12T02:39:57;15.48;;;10.32;;
38222;SDS011;24024;51.186;6.458;2023-08-12T02:42:28;14.50;;;10.63;;
38222;SDS011;24024;51.186;6.458;2023-08-12T02:44:57;12.57;;;9.73;;
38222;SDS011;24024;51.186;6.458;2023-08-12T02:47:26;15.82;;;11.20;;
38222;SDS011;24024;51.186;6.458;2023-08-12T02:49:53;14.80;;;9.80;;
38222;SDS011;24024;51.186;6.458;2023-08-12T02:52:23;14.93;;;10.10;;
38222;SDS011;24024;51.186;6.458;2023-08-12T02:54:51;19.83;;;12.68;;
38222;SDS011;24024;51.186;6.458;2023-08-12T02:57:18;18.38;;;11.68;;
38222;SDS011;24024;51.186;6.458;2023-08-12T02:59:48;17.27;;;11.55;;
38222;SDS011;24024;51.186;6.458;2023-08-12T03:02:15;16.20;;;12.13;;
38222;SDS011;24024;51.186;6.458;2023-08-12T03:04:42;18.92;;;12.30;;
38222;SDS011;24024;51.186;6.458;2023-08-12T03:07:10;17.35;;;11.38;;
38222;SDS011;24024;51.186;6.458;2023-08-12T03:09:37;17.20;;;12.20;;
38222;SDS011;24024;51.186;6.458;2023-08-12T03:12:04;15.13;;;11.40;;
38222;SDS011;24024;51.186;6.458;2023-08-12T03:14:32;16.70;;;10.73;;
38222;SDS011;24024;51.186;6.458;2023-08-12T03:17:01;15.80;;;11.07;;
38222;SDS011;24024;51.186;6.458;2023-08-12T03:19:32;14.60;;;10.07;;
38222;SDS011;24024;51.186;6.458;2023-08-12T03:21:59;15.88;;;11.02;;
38222;SDS011;24024;51.186;6.458;2023-08-12T03:24:26;17.25;;;10.68;;
38222;SDS011;24024;51.186;6.458;2023-08-12T03:26:52;15.70;;;10.25;;
38222;SDS011;24024;51.186;6.458;2023-08-12T03:29:19;16.90;;;11.68;;
38222;SDS011;24024;51.186;6.458;2023-08-12T03:31:48;15.90;;;10.25;;
38222;SDS011;24024;51.186;6.458;2023-08-12T03:34:15;14.10;;;9.95;;
38222;SDS011;24024;51.186;6.458;2023-08-12T03:36:42;15.40;;;10.85;;
38222;SDS011;24024;51.186;6.458;2023-08-12T03:39:08;15.93;;;11.35;;
38222;SDS011;24024;51.186;6.458;2023-08-12T03:41:38;13.90;;;9.38;;
38222;SDS011;24024;51.186;6.458;2023-08-12T03:44:04;16.65;;;9.98;;
38222;SDS011;24024;51.186;6.458;2023-08-12T03:46:33;13.82;;;8.93;;
38222;SDS011;24024;51.186;6.458;2023-08-12T03:49:00;15.55;;;10.93;;
38222;SDS011;24024;51.186;6.458;2023-08-12T03:51:27;12.50;;;8.68;;
38222;SDS011;24024;51.186;6.458;2023-08-12T03:53:56;11.52;;;7.72;;
38222;SDS011;24024;51.186;6.458;2023-08-12T03:56:24;12.85;;;8.73;;
38222;SDS011;24024;51.186;6.458;2023-08-12T03:58:51;13.07;;;8.32;;
38222;SDS011;24024;51.186;6.458;2023-08-12T04:01:17;13.38;;;7.43;;
38222;SDS011;24024;51.186;6.458;2023-08-12T04:03:44;14.60;;;9.05;;
38222;SDS011;24024;51.186;6.458;2023-08-12T04:06:11;11.50;;;8.20;;
38222;SDS011;24024;51.186;6.458;2023-08-12T04:08:40;12.85;;;8.98;;
38222;SDS011;24024;51.186;6.458;2023-08-12T04:11:12;12.02;;;8.00;;
38222;SDS011;24024;51.186;6.458;2023-08-12T04:13:39;13.60;;;8.38;;
38222;SDS011;24024;51.186;6.458;2023-08-12T04:16:08;13.05;;;8.32;;
38222;SDS011;24024;51.186;6.458;2023-08-12T04:18:34;12.30;;;7.60;;
38222;SDS011;24024;51.186;6.458;2023-08-12T04:21:01;12.60;;;8.00;;
38222;SDS011;24024;51.186;6.458;2023-08-12T04:23:33;12.50;;;8.33;;
38222;SDS011;24024;51.186;6.458;2023-08-12T04:25:59;10.93;;;8.05;;
38222;SDS011;24024;51.186;6.458;2023-08-12T04:28:33;15.17;;;9.10;;
38222;SDS011;24024;51.186;6.458;2023-08-12T04:31:00;15.38;;;9.50;;
38222;SDS011;24024;51.186;6.458;2023-08-12T04:33:32;14.60;;;9.00;;
38222;SDS011;24024;51.186;6.458;2023-08-12T04:36:01;13.63;;;8.30;;
38222;SDS011;24024;51.186;6.458;2023-08-12T04:38:28;11.15;;;7.15;;
38222;SDS011;24024;51.186;6.458;2023-08-12T04:40:54;15.38;;;10.35;;
38222;SDS011;24024;51.186;6.458;2023-08-12T04:43:26;11.73;;;8.20;;
38222;SDS011;24024;51.186;6.458;2023-08-12T04:45:53;12.40;;;8.55;;
38222;SDS011;24024;51.186;6.458;2023-08-12T04:48:22;15.18;;;9.68;;
38222;SDS011;24024;51.186;6.458;2023-08-12T04:50:51;11.93;;;9.13;;
38222;SDS011;24024;51.186;6.458;2023-08-12T04:53:26;13.07;;;8.10;;
38222;SDS011;24024;51.186;6.458;2023-08-12T04:55:56;13.38;;;8.23;;
38222;SDS011;24024;51.186;6.458;2023-08-12T04:58:23;13.60;;;9.07;;
38222;SDS011;24024;51.186;6.458;2023-08-12T05:00:53;14.07;;;8.07;;
38222;SDS011;24024;51.186;6.458;2023-08-12T05:03:20;12.93;;;8.48;;
38222;SDS011;24024;51.186;6.458;2023-08-12T05:05:50;15.02;;;7.97;;
38222;SDS011;24024;51.186;6.458;2023-08-12T05:08:21;11.10;;;7.47;;
38222;SDS011;24024;51.186;6.458;2023-08-12T05:10:48;11.38;;;7.55;;
38222;SDS011;24024;51.186;6.458;2023-08-12T05:13:16;10.27;;;8.20;;
38222;SDS011;24024;51.186;6.458;2023-08-12T05:15:46;13.82;;;8.70;;
38222;SDS011;24024;51.186;6.458;2023-08-12T05:18:14;13.07;;;7.95;;
38222;SDS011;24024;51.186;6.458;2023-08-12T05:20:43;10.82;;;7.78;;
38222;SDS011;24024;51.186;6.458;2023-08-12T05:23:12;12.82;;;7.75;;
38222;SDS011;24024;51.186;6.458;2023-08-12T05:25:39;16.30;;;9.70;;
38222;SDS011;24024;51.186;6.458;2023-08-12T05:28:07;14.48;;;9.27;;
38222;SDS011;24024;51.186;6.458;2023-08-12T05:30:34;15.23;;;9.25;;
38222;SDS011;24024;51.186;6.458;2023-08-12T05:33:01;13.88;;;9.10;;
38222;SDS011;24024;51.186;6.458;2023-08-12T05:35:32;16.48;;;10.60;;
38222;SDS011;24024;51.186;6.458;2023-08-12T05:38:02;16.00;;;10.05;;
38222;SDS011;24024;51.186;6.458;2023-08-12T05:40:29;14.45;;;9.80;;
38222;SDS011;24024;51.186;6.458;2023-08-12T05:42:55;15.88;;;11.35;;
38222;SDS011;24024;51.186;6.458;2023-08-12T05:45:25;13.77;;;9.63;;
38222;SDS011;24024;51.186;6.458;2023-08-12T05:47:51;14.27;;;9.38;;
38222;SDS011;24024;51.186;6.458;2023-08-12T05:50:21;17.23;;;10.48;;
38222;SDS011;24024;51.186;6.458;2023-08-12T05:52:50;15.27;;;9.32;;
38222;SDS011;24024;51.186;6.458;2023-08-12T05:55:16;15.70;;;9.50;;
38222;SDS011;24024;51.186;6.458;2023-08-12T05:57:45;15.07;;;9.50;;
38222;SDS011;24024;51.186;6.458;2023-08-12T06:00:13;14.07;;;10.45;;
38222;SDS011;24024;51.186;6.458;2023-08-12T06:02:39;14.02;;;10.30;;
38222;SDS011;24024;51.186;6.458;2023-08-12T06:05:09;16.15;;;9.55;;
38222;SDS011;24024;51.186;6.458;2023-08-12T06:07:36;14.60;;;9.27;;
38222;SDS011;24024;51.186;6.458;2023-08-12T06:10:03;14.02;;;10.50;;
38222;SDS011;24024;51.186;6.458;2023-08-12T06:12:31;15.52;;;11.13;;
38222;SDS011;24024;51.186;6.458;2023-08-12T06:14:57;12.88;;;9.75;;
38222;SDS011;24024;51.186;6.458;2023-08-12T06:17:27;14.93;;;10.35;;
38222;SDS011;24024;51.186;6.458;2023-08-12T06:19:54;14.93;;;10.07;;
38222;SDS011;24024;51.186;6.458;2023-08-12T06:22:20;14.77;;;10.35;;
38222;SDS011;24024;51.186;6.458;2023-08-12T06:24:50;14.32;;;9.52;;
38222;SDS011;24024;51.186;6.458;2023-08-12T06:27:19;18.40;;;10.07;;
38222;SDS011;24024;51.186;6.458;2023-08-12T06:29:46;16.75;;;9.90;;
38222;SDS011;24024;51.186;6.458;2023-08-12T06:32:15;13.00;;;9.73;;
38222;SDS011;24024;51.186;6.458;2023-08-12T06:34:42;12.13;;;9.27;;
38222;SDS011;24024;51.186;6.458;2023-08-12T06:37:11;11.70;;;9.23;;
38222;SDS011;24024;51.186;6.458;2023-08-12T06:39:40;9.90;;;7.78;;
38222;SDS011;24024;51.186;6.458;2023-08-12T06:42:07;10.02;;;7.30;;
38222;SDS011;24024;51.186;6.458;2023-08-12T06:44:39;11.53;;;6.97;;
38222;SDS011;24024;51.186;6.458;2023-08-12T06:47:05;10.88;;;6.75;;
38222;SDS011;24024;51.186;6.458;2023-08-12T06:49:32;8.52;;;6.03;;
38222;SDS011;24024;51.186;6.458;2023-08-12T06:52:01;9.20;;;5.85;;
38222;SDS011;24024;51.186;6.458;2023-08-12T06:54:28;9.45;;;6.25;;
38222;SDS011;24024;51.186;6.458;2023-08-12T06:56:55;8.73;;;6.38;;
38222;SDS011;24024;51.186;6.458;2023-08-12T06:59:24;9.18;;;6.07;;
38222;SDS011;24024;51.186;6.458;2023-08-12T07:01:50;9.30;;;6.18;;
38222;SDS011;24024;51.186;6.458;2023-08-12T07:04:17;8.93;;;6.00;;
38222;SDS011;24024;51.186;6.458;2023-08-12T07:06:44;7.72;;;5.40;;
38222;SDS011;24024;51.186;6.458;2023-08-12T07:09:11;7.28;;;4.63;;
38222;SDS011;24024;51.186;6.458;2023-08-12T07:11:38;6.85;;;4.93;;
38222;SDS011;24024;51.186;6.458;2023-08-12T07:14:07;9.38;;;4.30;;
38222;SDS011;24024;51.186;6.458;2023-08-12T07:16:33;6.03;;;3.85;;
38222;SDS011;24024;51.186;6.458;2023-08-12T07:19:00;7.00;;;3.72;;
38222;SDS011;24024;51.186;6.458;2023-08-12T07:21:27;7.65;;;3.45;;
38222;SDS011;24024;51.186;6.458;2023-08-12T07:23:54;5.70;;;3.22;;
38222;SDS011;24024;51.186;6.458;2023-08-12T07:26:29;7.00;;;3.70;;
38222;SDS011;24024;51.186;6.458;2023-08-12T07:28:56;4.30;;;3.15;;
38222;SDS011;24024;51.186;6.458;2023-08-12T07:31:23;5.28;;;3.10;;
38222;SDS011;24024;51.186;6.458;2023-08-12T07:33:50;6.65;;;3.45;;
38222;SDS011;24024;51.186;6.458;2023-08-12T07:36:17;5.68;;;3.05;;
38222;SDS011;24024;51.186;6.458;2023-08-12T07:38:45;4.72;;;2.70;;
38222;SDS011;24024;51.186;6.458;2023-08-12T07:41:15;8.43;;;4.70;;
38222;SDS011;24024;51.186;6.458;2023-08-12T07:43:44;6.22;;;2.97;;
38222;SDS011;24024;51.186;6.458;2023-08-12T07:46:10;5.90;;;3.38;;
38222;SDS011;24024;51.186;6.458;2023-08-12T07:48:37;5.88;;;3.00;;
38222;SDS011;24024;51.186;6.458;2023-08-12T07:51:04;4.72;;;2.90;;
38222;SDS011;24024;51.186;6.458;2023-08-12T07:53:31;5.30;;;2.50;;
38222;SDS011;24024;51.186;6.458;2023-08-12T07:56:01;3.88;;;2.45;;
38222;SDS011;24024;51.186;6.458;2023-08-12T07:58:27;4.63;;;2.40;;
38222;SDS011;24024;51.186;6.458;2023-08-12T08:00:56;3.13;;;1.65;;
38222;SDS011;24024;51.186;6.458;2023-08-12T08:03:25;3.83;;;2.00;;
38222;SDS011;24024;51.186;6.458;2023-08-12T08:05:52;4.82;;;2.38;;
38222;SDS011;24024;51.186;6.458;2023-08-12T08:08:21;4.10;;;1.75;;
38222;SDS011;24024;51.186;6.458;2023-08-12T08:10:48;3.67;;;1.80;;
38222;SDS011;24024;51.186;6.458;2023-08-12T08:13:15;2.67;;;1.70;;
38222;SDS011;24024;51.186;6.458;2023-08-12T08:15:43;3.75;;;1.80;;
38222;SDS011;24024;51.186;6.458;2023-08-12T08:18:11;5.20;;;1.70;;
38222;SDS011;24024;51.186;6.458;2023-08-12T08:20:37;3.92;;;1.77;;
38222;SDS011;24024;51.186;6.458;2023-08-12T08:23:04;4.10;;;1.80;;
38222;SDS011;24024;51.186;6.458;2023-08-12T08:25:31;3.05;;;1.70;;
38222;SDS011;24024;51.186;6.458;2023-08-12T08:27:58;5.18;;;1.60;;
38222;SDS011;24024;51.186;6.458;2023-08-12T08:30:27;3.20;;;1.60;;
38222;SDS011;24024;51.186;6.458;2023-08-12T08:32:56;5.53;;;1.60;;
38222;SDS011;24024;51.186;6.458;2023-08-12T08:35:23;4.03;;;1.60;;
38222;SDS011;24024;51.186;6.458;2023-08-12T08:37:53;3.60;;;1.92;;
38222;SDS011;24024;51.186;6.458;2023-08-12T08:40:19;3.47;;;1.80;;
38222;SDS011;24024;51.186;6.458;2023-08-12T08:42:47;3.17;;;1.58;;
38222;SDS011;24024;51.186;6.458;2023-08-12T08:45:20;3.30;;;2.00;;
38222;SDS011;24024;51.186;6.458;2023-08-12T08:47:49;3.15;;;1.35;;
38222;SDS011;24024;51.186;6.458;2023-08-12T08:50:18;2.65;;;1.38;;
38222;SDS011;24024;51.186;6.458;2023-08-12T08:52:46;2.33;;;1.38;;
38222;SDS011;24024;51.186;6.458;2023-08-12T08:55:14;4.97;;;1.48;;
38222;SDS011;24024;51.186;6.458;2023-08-12T08:57:43;2.55;;;1.20;;
38222;SDS011;24024;51.186;6.458;2023-08-12T09:00:14;3.22;;;1.48;;
38222;SDS011;24024;51.186;6.458;2023-08-12T09:02:44;3.15;;;1.30;;
38222;SDS011;24024;51.186;6.458;2023-08-12T09:05:16;3.38;;;1.30;;
38222;SDS011;24024;51.186;6.458;2023-08-12T09:07:46;3.67;;;1.33;;
38222;SDS011;24024;51.186;6.458;2023-08-12T09:10:15;2.38;;;1.30;;
38222;SDS011;24024;51.186;6.458;2023-08-12T09:12:49;2.80;;;1.13;;
38222;SDS011;24024;51.186;6.458;2023-08-12T09:15:18;11.00;;;1.45;;
38222;SDS011;24024;51.186;6.458;2023-08-12T09:17:45;2.70;;;1.13;;
38222;SDS011;24024;51.186;6.458;2023-08-12T09:20:12;3.20;;;1.40;;
38222;SDS011;24024;51.186;6.458;2023-08-12T09:22:39;2.70;;;1.42;;
38222;SDS011;24024;51.186;6.458;2023-08-12T09:25:08;2.90;;;1.13;;
38222;SDS011;24024;51.186;6.458;2023-08-12T09:27:36;3.08;;;1.40;;
38222;SDS011;24024;51.186;6.458;2023-08-12T09:30:04;3.70;;;1.70;;
38222;SDS011;24024;51.186;6.458;2023-08-12T09:32:32;2.80;;;1.60;;
38222;SDS011;24024;51.186;6.458;2023-08-12T09:35:01;2.67;;;1.52;;
38222;SDS011;24024;51.186;6.458;2023-08-12T09:37:32;2.00;;;1.10;;
38222;SDS011;24024;51.186;6.458;2023-08-12T09:40:02;1.80;;;1.00;;
38222;SDS011;24024;51.186;6.458;2023-08-12T09:42:34;2.33;;;1.33;;
38222;SDS011;24024;51.186;6.458;2023-08-12T09:45:01;3.53;;;1.20;;
38222;SDS011;24024;51.186;6.458;2023-08-12T09:47:33;2.30;;;1.30;;
38222;SDS011;24024;51.186;6.458;2023-08-12T09:50:00;3.20;;;1.77;;
38222;SDS011;24024;51.186;6.458;2023-08-12T09:52:28;3.72;;;1.60;;
38222;SDS011;24024;51.186;6.458;2023-08-12T09:54:54;2.40;;;1.30;;
38222;SDS011;24024;51.186;6.458;2023-08-12T09:57:23;3.58;;;1.60;;
38222;SDS011;24024;51.186;6.458;2023-08-12T09:59:56;3.65;;;1.70;;
38222;SDS011;24024;51.186;6.458;2023-08-12T10:02:24;2.13;;;1.10;;
38222;SDS011;24024;51.186;6.458;2023-08-12T10:04:53;3.05;;;1.10;;
38222;SDS011;24024;51.186;6.458;2023-08-12T10:07:23;2.60;;;1.73;;
38222;SDS011;24024;51.186;6.458;2023-08-12T10:09:50;2.60;;;1.23;;
38222;SDS011;24024;51.186;6.458;2023-08-12T10:12:17;2.33;;;1.10;;
38222;SDS011;24024;51.186;6.458;2023-08-12T10:14:47;2.42;;;1.10;;
38222;SDS011;24024;51.186;6.458;2023-08-12T10:17:17;2.25;;;1.00;;
38222;SDS011;24024;51.186;6.458;2023-08-12T10:20:03;3.50;;;2.10;;
38222;SDS011;24024;51.186;6.458;2023-08-12T10:22:31;2.45;;;1.27;;
38222;SDS011;24024;51.186;6.458;2023-08-12T10:25:02;8.65;;;5.32;;
38222;SDS011;24024;51.186;6.458;2023-08-12T10:27:30;3.90;;;1.10;;
38222;SDS011;24024;51.186;6.458;2023-08-12T10:30:06;4.35;;;1.52;;
38222;SDS011;24024;51.186;6.458;2023-08-12T10:32:39;11.45;;;6.15;;
38222;SDS011;24024;51.186;6.458;2023-08-12T10:35:06;2.30;;;1.15;;
38222;SDS011;24024;51.186;6.458;2023-08-12T10:37:34;2.33;;;0.90;;
38222;SDS011;24024;51.186;6.458;2023-08-12T10:40:05;4.53;;;2.35;;
38222;SDS011;24024;51.186;6.458;2023-08-12T10:42:42;9.40;;;5.18;;
38222;SDS011;24024;51.186;6.458;2023-08-12T10:45:10;5.22;;;2.67;;
38222;SDS011;24024;51.186;6.458;2023-08-12T10:47:41;3.30;;;1.45;;
38222;SDS011;24024;51.186;6.458;2023-08-12T10:50:30;3.88;;;1.50;;
38222;SDS011;24024;51.186;6.458;2023-08-12T10:52:59;3.88;;;1.55;;
38222;SDS011;24024;51.186;6.458;2023-08-12T10:55:48;2.40;;;1.20;;
38222;SDS011;24024;51.186;6.458;2023-08-12T10:58:25;4.57;;;2.38;;
38222;SDS011;24024;51.186;6.458;2023-08-12T11:00:56;4.72;;;2.03;;
38222;SDS011;24024;51.186;6.458;2023-08-12T11:03:24;4.07;;;1.20;;
38222;SDS011;24024;51.186;6.458;2023-08-12T11:06:00;2.20;;;1.10;;
38222;SDS011;24024;51.186;6.458;2023-08-12T11:08:29;2.58;;;1.58;;
38222;SDS011;24024;51.186;6.458;2023-08-12T11:10:59;1.70;;;1.05;;
38222;SDS011;24024;51.186;6.458;2023-08-12T11:13:31;1.80;;;0.90;;
38222;SDS011;24024;51.186;6.458;2023-08-12T11:16:07;2.10;;;1.08;;
38222;SDS011;24024;51.186;6.458;2023-08-12T11:18:35;2.65;;;1.02;;
38222;SDS011;24024;51.186;6.458;2023-08-12T11:21:05;1.70;;;1.00;;
38222;SDS011;24024;51.186;6.458;2023-08-12T11:23:35;1.48;;;0.90;;
38222;SDS011;24024;51.186;6.458;2023-08-12T11:26:06;1.48;;;0.90;;
38222;SDS011;24024;51.186;6.458;2023-08-12T11:28:38;1.95;;;0.90;;
38222;SDS011;24024;51.186;6.458;2023-08-12T11:31:07;10.77;;;3.88;;
38222;SDS011;24024;51.186;6.458;2023-08-12T11:33:34;2.85;;;0.98;;
38222;SDS011;24024;51.186;6.458;2023-08-12T11:36:01;6.07;;;2.20;;
38222;SDS011;24024;51.186;6.458;2023-08-12T11:38:30;3.08;;;1.13;;
38222;SDS011;24024;51.186;6.458;2023-08-12T11:41:00;2.35;;;1.10;;
38222;SDS011;24024;51.186;6.458;2023-08-12T11:43:29;1.48;;;0.98;;
38222;SDS011;24024;51.186;6.458;2023-08-12T11:45:58;2.10;;;0.90;;
38222;SDS011;24024;51.186;6.458;2023-08-12T11:48:30;2.72;;;1.30;;
38222;SDS011;24024;51.186;6.458;2023-08-12T11:50:57;4.20;;;1.27;;
38222;SDS011;24024;51.186;6.458;2023-08-12T11:53:24;1.48;;;0.70;;
38222;SDS011;24024;51.186;6.458;2023-08-12T11:55:53;2.05;;;1.15;;
38222;SDS011;24024;51.186;6.458;2023-08-12T11:58:20;3.35;;;1.80;;
38222;SDS011;24024;51.186;6.458;2023-08-12T12:00:52;3.72;;;1.70;;
38222;SDS011;24024;51.186;6.458;2023-08-12T12:03:20;4.85;;;2.72;;
38222;SDS011;24024;51.186;6.458;2023-08-12T12:05:47;4.45;;;2.58;;
38222;SDS011;24024;51.186;6.458;2023-08-12T12:08:14;3.20;;;2.00;;
38222;SDS011;24024;51.186;6.458;2023-08-12T12:10:41;2.60;;;1.75;;
38222;SDS011;24024;51.186;6.458;2023-08-12T12:13:08;2.92;;;1.92;;
38222;SDS011;24024;51.186;6.458;2023-08-12T12:15:43;3.78;;;1.90;;
38222;SDS011;24024;51.186;6.458;2023-08-12T12:18:13;3.05;;;1.83;;
38222;SDS011;24024;51.186;6.458;2023-08-12T12:21:19;3.05;;;1.70;;
38222;SDS011;24024;51.186;6.458;2023-08-12T12:23:36;4.20;;;2.05;;
38222;SDS011;24024;51.186;6.458;2023-08-12T12:26:03;3.13;;;2.35;;
38222;SDS011;24024;51.186;6.458;2023-08-12T12:28:30;3.50;;;3.20;;
38222;SDS011;24024;51.186;6.458;2023-08-12T12:31:00;4.80;;;4.22;;
38222;SDS011;24024;51.186;6.458;2023-08-12T12:33:34;4.93;;;3.70;;
38222;SDS011;24024;51.186;6.458;2023-08-12T12:36:01;5.80;;;4.80;;
38222;SDS011;24024;51.186;6.458;2023-08-12T12:38:30;5.57;;;5.07;;
38222;SDS011;24024;51.186;6.458;2023-08-12T12:40:59;7.35;;;5.90;;
38222;SDS011;24024;51.186;6.458;2023-08-12T12:43:26;6.68;;;5.60;;
38222;SDS011;24024;51.186;6.458;2023-08-12T12:45:55;7.20;;;6.50;;
38222;SDS011;24024;51.186;6.458;2023-08-12T12:48:22;6.68;;;5.60;;
38222;SDS011;24024;51.186;6.458;2023-08-12T12:50:49;6.55;;;5.20;;
38222;SDS011;24024;51.186;6.458;2023-08-12T12:53:16;6.57;;;4.75;;
38222;SDS011;24024;51.186;6.458;2023-08-12T12:55:43;5.57;;;4.55;;
38222;SDS011;24024;51.186;6.458;2023-08-12T12:58:10;5.10;;;3.85;;
38222;SDS011;24024;51.186;6.458;2023-08-12T13:00:37;4.22;;;2.95;;
38222;SDS011;24024;51.186;6.458;2023-08-12T13:03:04;4.10;;;3.17;;
38222;SDS011;24024;51.186;6.458;2023-08-12T13:05:34;5.82;;;3.42;;
38222;SDS011;24024;51.186;6.458;2023-08-12T13:08:00;4.10;;;2.80;;
38222;SDS011;24024;51.186;6.458;2023-08-12T13:10:27;6.72;;;3.40;;
38222;SDS011;24024;51.186;6.458;2023-08-12T13:12:58;4.90;;;3.80;;
38222;SDS011;24024;51.186;6.458;2023-08-12T13:15:30;4.60;;;3.10;;
38222;SDS011;24024;51.186;6.458;2023-08-12T13:18:03;4.53;;;3.45;;
38222;SDS011;24024;51.186;6.458;2023-08-12T13:20:29;4.75;;;3.30;;
38222;SDS011;24024;51.186;6.458;2023-08-12T13:22:58;4.22;;;3.17;;
38222;SDS011;24024;51.186;6.458;2023-08-12T13:25:28;6.07;;;3.70;;
38222;SDS011;24024;51.186;6.458;2023-08-12T13:27:57;4.07;;;3.22;;
38222;SDS011;24024;51.186;6.458;2023-08-12T13:30:30;12.77;;;3.90;;
38222;SDS011;24024;51.186;6.458;2023-08-12T13:32:58;10.18;;;3.30;;
38222;SDS011;24024;51.186;6.458;2023-08-12T13:35:27;4.40;;;3.17;;
38222;SDS011;24024;51.186;6.458;2023-08-12T13:37:54;5.68;;;3.60;;
38222;SDS011;24024;51.186;6.458;2023-08-12T13:40:25;4.20;;;3.05;;
38222;SDS011;24024;51.186;6.458;2023-08-12T13:42:52;4.90;;;3.08;;
38222;SDS011;24024;51.186;6.458;2023-08-12T13:45:19;3.88;;;2.80;;
38222;SDS011;24024;51.186;6.458;2023-08-12T13:47:46;4.68;;;2.55;;
38222;SDS011;24024;51.186;6.458;2023-08-12T13:50:13;2.95;;;2.15;;
38222;SDS011;24024;51.186;6.458;2023-08-12T13:52:43;3.45;;;2.30;;
38222;SDS011;24024;51.186;6.458;2023-08-12T13:55:12;2.58;;;1.60;;
38222;SDS011;24024;51.186;6.458;2023-08-12T13:57:41;2.80;;;1.70;;
38222;SDS011;24024;51.186;6.458;2023-08-12T14:00:10;6.85;;;2.08;;
38222;SDS011;24024;51.186;6.458;2023-08-12T14:05:08;3.15;;;1.70;;
38222;SDS011;24024;51.186;6.458;2023-08-12T14:07:36;3.03;;;1.50;;
38222;SDS011;24024;51.186;6.458;2023-08-12T14:10:08;2.53;;;1.33;;
38222;SDS011;24024;51.186;6.458;2023-08-12T14:12:37;3.47;;;1.63;;
38222;SDS011;24024;51.186;6.458;2023-08-12T14:15:09;2.80;;;1.50;;
38222;SDS011;24024;51.186;6.458;2023-08-12T14:17:39;3.40;;;1.73;;
38222;SDS011;24024;51.186;6.458;2023-08-12T14:20:08;3.10;;;1.10;;
38222;SDS011;24024;51.186;6.458;2023-08-12T14:22:35;3.28;;;1.20;;
38222;SDS011;24024;51.186;6.458;2023-08-12T14:25:02;5.30;;;1.33;;
38222;SDS011;24024;51.186;6.458;2023-08-12T14:27:34;4.57;;;1.33;;
38222;SDS011;24024;51.186;6.458;2023-08-12T14:30:05;3.17;;;1.40;;
38222;SDS011;24024;51.186;6.458;2023-08-12T14:32:33;4.20;;;1.70;;
38222;SDS011;24024;51.186;6.458;2023-08-12T14:35:00;3.58;;;1.85;;
38222;SDS011;24024;51.186;6.458;2023-08-12T14:37:26;4.68;;;1.80;;
38222;SDS011;24024;51.186;6.458;2023-08-12T14:39:54;3.15;;;1.20;;
38222;SDS011;24024;51.186;6.458;2023-08-12T14:42:23;5.30;;;1.92;;
38222;SDS011;24024;51.186;6.458;2023-08-12T14:44:50;3.38;;;1.20;;
38222;SDS011;24024;51.186;6.458;2023-08-12T14:47:19;3.83;;;1.20;;
38222;SDS011;24024;51.186;6.458;2023-08-12T14:49:46;7.13;;;1.80;;
38222;SDS011;24024;51.186;6.458;2023-08-12T14:52:17;3.72;;;1.20;;
38222;SDS011;24024;51.186;6.458;2023-08-12T14:54:45;4.25;;;1.50;;